Time;durP1;ratioP1;P1;durP2;ratioP2;P2;SDS_P1;SDS_P2;PMS_P1;PMS_P2;Temp;Humidity;BMP_temperature;BMP_pressure;BME280_temperature;BME280_humidity;BME280_pressure;Samples;Min_cycle;Max_cycle;Signal;HPM_P1;HPM_P2
2021/12/26 00:02:34;;;;;;;33.42;10.15;;;;;;;-10.92;79.20;99167.38;8417175;28;20036;-84
2021/12/26 00:06:35;;;;;;;32.40;9.77;;;;;;;-10.94;79.37;99164.13;8434658;28;20143;-83
2021/12/26 00:10:36;;;;;;;32.92;8.20;;;;;;;-10.96;79.18;99160.88;8450378;28;20047;-83
2021/12/26 00:14:37;;;;;;;25.88;7.93;;;;;;;-10.98;79.21;99162.84;8471091;27;20059;-83
2021/12/26 00:18:45;;;;;;;34.53;10.07;;;;;;;-11.05;79.05;99172.34;8472791;27;20047;-83
2021/12/26 00:22:45;;;;;;;31.90;9.43;;;;;;;-11.08;79.15;99164.84;8471698;27;20055;-83
2021/12/26 00:26:46;;;;;;;32.50;9.18;;;;;;;-11.11;78.97;99165.19;8448424;27;20058;-84
2021/12/26 00:30:47;;;;;;;42.78;10.48;;;;;;;-11.15;79.08;99150.84;8476217;27;20043;-84
2021/12/26 00:34:50;;;;;;;35.08;9.48;;;;;;;-11.19;79.15;99154.78;8471593;27;20035;-83
2021/12/26 00:38:51;;;;;;;31.33;9.52;;;;;;;-11.19;79.04;99160.00;8450405;27;20043;-84
2021/12/26 00:42:55;;;;;;;45.15;11.35;;;;;;;-11.19;79.03;99160.81;8463914;27;20482;-83
2021/12/26 00:46:55;;;;;;;37.90;10.77;;;;;;;-11.21;79.09;99156.75;8490475;27;20464;-83
2021/12/26 00:50:57;;;;;;;59.90;14.52;;;;;;;-11.21;78.99;99154.94;8418279;27;20052;-82
2021/12/26 00:54:58;;;;;;;73.60;18.85;;;;;;;-11.21;78.74;99172.41;8463610;27;20047;-83
2021/12/26 00:58:59;;;;;;;76.18;16.98;;;;;;;-11.17;78.97;99168.47;8467446;27;20072;-83
2021/12/26 01:03:02;;;;;;;68.40;17.00;;;;;;;-11.19;78.96;99165.22;8449292;27;20035;-83
2021/12/26 01:07:09;;;;;;;72.60;17.73;;;;;;;-11.20;78.94;99158.38;8445012;27;20047;-83
2021/12/26 01:11:31;;;;;;;48.78;11.20;;;;;;;-11.12;78.92;99166.97;8467097;27;20504;-84
2021/12/26 01:15:31;;;;;;;45.70;12.85;;;;;;;-11.08;79.13;99170.06;8469542;27;20172;-84
2021/12/26 01:19:42;;;;;;;42.72;10.68;;;;;;;-11.08;79.05;99167.44;8451488;27;20047;-84
2021/12/26 01:23:44;;;;;;;33.13;8.85;;;;;;;-10.99;78.84;99166.44;8458554;27;20050;-84
2021/12/26 01:27:45;;;;;;;20.48;7.15;;;;;;;-10.95;79.10;99175.56;8466993;27;20036;-83
2021/12/26 01:31:46;;;;;;;16.02;7.18;;;;;;;-10.94;79.15;99164.13;8458093;27;20126;-84
2021/12/26 01:35:47;;;;;;;23.73;6.65;;;;;;;-10.91;79.21;99163.78;8466925;27;20035;-84
2021/12/26 01:39:48;;;;;;;16.35;6.43;;;;;;;-10.88;79.24;99162.63;8433050;27;20067;-83
2021/12/26 01:43:52;;;;;;;24.65;6.10;;;;;;;-10.87;79.18;99159.03;8461969;27;20054;-84
2021/12/26 01:48:00;;;;;;;22.17;5.90;;;;;;;-10.88;79.33;99158.22;8476517;27;20182;-84
2021/12/26 01:52:04;;;;;;;23.13;7.15;;;;;;;-10.90;79.31;99149.78;8450768;27;20044;-83
2021/12/26 01:56:09;;;;;;;31.33;8.07;;;;;;;-10.90;79.70;99155.00;8465320;27;20385;-84
2021/12/26 02:00:10;;;;;;;39.25;9.30;;;;;;;-10.83;79.50;99155.09;8472919;27;20035;-84
2021/12/26 02:04:12;;;;;;;49.60;13.18;;;;;;;-10.83;79.87;99148.09;8425653;28;20476;-84
2021/12/26 02:08:13;;;;;;;54.63;14.23;;;;;;;-10.84;79.42;99153.50;8488528;27;20047;-84
2021/12/26 02:12:13;;;;;;;34.85;10.35;;;;;;;-10.85;79.58;99152.69;8448915;28;20396;-84
2021/12/26 02:16:14;;;;;;;43.97;11.05;;;;;;;-10.91;79.48;99155.97;8469135;28;20427;-83
2021/12/26 02:20:18;;;;;;;34.53;9.48;;;;;;;-10.94;79.89;99152.91;8443699;28;20188;-83
2021/12/26 02:28:20;;;;;;;31.48;8.80;;;;;;;-10.88;79.61;99147.78;8448320;27;20149;-83
2021/12/26 02:32:21;;;;;;;26.50;7.38;;;;;;;-10.90;79.56;99144.56;8440425;27;20066;-82
2021/12/26 02:36:22;;;;;;;23.55;6.85;;;;;;;-10.90;79.84;99149.78;8470381;27;20044;-83
2021/12/26 02:40:23;;;;;;;25.13;7.25;;;;;;;-10.94;79.77;99148.47;8451393;27;20059;-84
2021/12/26 02:44:23;;;;;;;30.30;8.05;;;;;;;-11.02;79.65;99145.91;8477476;27;20057;-83
2021/12/26 02:48:24;;;;;;;22.40;7.55;;;;;;;-11.05;79.53;99151.47;8473351;27;20071;-84
2021/12/26 02:52:25;;;;;;;26.35;6.80;;;;;;;-11.17;79.73;99158.03;8475174;27;20043;-84
2021/12/26 02:56:26;;;;;;;34.92;10.65;;;;;;;-11.16;79.84;99149.25;8468264;27;20043;-83
2021/12/26 03:00:31;;;;;;;28.48;8.95;;;;;;;-11.13;79.86;99148.88;8460588;27;20048;-84
2021/12/26 03:04:31;;;;;;;27.00;8.55;;;;;;;-11.21;79.68;99146.34;8464141;27;20043;-84
2021/12/26 03:08:32;;;;;;;26.98;8.07;;;;;;;-11.24;79.87;99146.66;8464395;27;20074;-84
2021/12/26 03:12:33;;;;;;;26.98;8.98;;;;;;;-11.20;79.74;99153.16;8472435;27;20047;-85
2021/12/26 03:16:34;;;;;;;37.13;10.82;;;;;;;-11.25;79.69;99150.22;8464070;27;20044;-84
2021/12/26 03:20:39;;;;;;;35.33;10.43;;;;;;;-11.27;79.58;99152.22;8482104;27;20050;-84
2021/12/26 03:24:41;;;;;;;35.38;10.90;;;;;;;-11.32;79.52;99149.31;8467052;27;20036;-84
2021/12/26 03:28:42;;;;;;;38.70;10.07;;;;;;;-11.33;79.43;99153.69;8478144;27;20043;-86
2021/12/26 03:32:43;;;;;;;179.18;30.70;;;;;;;-11.31;79.57;99156.13;8446924;27;20039;-85
2021/12/26 03:36:44;;;;;;;78.40;17.23;;;;;;;-11.19;79.52;99157.38;8480184;27;20051;-85
2021/12/26 03:40:46;;;;;;;42.97;11.75;;;;;;;-11.08;79.56;99162.22;8468255;27;20044;-86
2021/12/26 03:44:47;;;;;;;54.40;12.30;;;;;;;-11.03;79.61;99154.72;8448149;27;20031;-85
2021/12/26 03:48:47;;;;;;;42.95;12.10;;;;;;;-11.05;79.46;99167.13;8480523;27;20043;-85
2021/12/26 03:52:54;;;;;;;40.05;11.52;;;;;;;-10.99;79.75;99170.81;8447415;27;20412;-87
2021/12/26 03:56:55;;;;;;;45.50;13.00;;;;;;;-10.92;79.56;99162.16;8450764;27;20039;-84
2021/12/26 04:00:56;;;;;;;97.65;24.40;;;;;;;-10.86;79.49;99161.47;8466884;27;20104;-84
2021/12/26 04:04:56;;;;;;;48.03;13.98;;;;;;;-10.80;79.53;99171.25;8447986;27;20044;-85
2021/12/26 04:08:57;;;;;;;48.88;14.32;;;;;;;-10.76;79.72;99172.53;8430413;27;20051;-84
2021/12/26 04:12:58;;;;;;;57.72;13.77;;;;;;;-10.77;80.08;99170.06;8467874;27;20054;-85
2021/12/26 04:16:59;;;;;;;50.92;13.82;;;;;;;-10.77;80.13;99170.88;8369679;28;20075;-84
2021/12/26 04:21:00;;;;;;;46.70;13.25;;;;;;;-10.76;79.95;99166.47;8391757;28;20059;-87
2021/12/26 04:25:01;;;;;;;39.33;12.25;;;;;;;-10.80;80.20;99160.81;8381397;28;20434;-85
2021/12/26 04:29:01;;;;;;;49.88;12.55;;;;;;;-10.89;80.08;99169.63;8356602;28;20041;-85
2021/12/26 04:33:04;;;;;;;48.85;13.65;;;;;;;-10.94;80.32;99166.72;8392097;28;20456;-84
2021/12/26 04:37:05;;;;;;;49.50;13.13;;;;;;;-10.95;80.38;99172.13;8388769;28;20055;-84
2021/12/26 04:41:06;;;;;;;55.67;14.73;;;;;;;-10.96;80.34;99171.31;8361549;28;20586;-85
2021/12/26 04:45:09;;;;;;;49.28;13.63;;;;;;;-10.94;80.15;99169.34;8372450;28;20085;-84
2021/12/26 04:49:10;;;;;;;55.20;14.75;;;;;;;-10.90;80.45;99170.63;8465036;27;20048;-84
2021/12/26 04:53:11;;;;;;;49.65;14.18;;;;;;;-10.88;80.45;99179.09;8452609;27;20376;-85
2021/12/26 04:57:11;;;;;;;53.78;14.50;;;;;;;-10.85;80.64;99173.56;8444229;28;20534;-83
2021/12/26 05:01:12;;;;;;;42.95;13.43;;;;;;;-10.80;80.66;99176.47;8462625;28;20048;-84
2021/12/26 05:05:13;;;;;;;58.40;15.00;;;;;;;-10.75;80.69;99179.38;8462456;28;20053;-84
2021/12/26 05:09:14;;;;;;;56.88;16.40;;;;;;;-10.65;80.86;99178.34;8444953;28;20130;-83
2021/12/26 05:13:15;;;;;;;61.35;18.50;;;;;;;-10.55;80.79;99184.16;8467197;27;20047;-83
2021/12/26 05:17:16;;;;;;;87.28;20.17;;;;;;;-10.47;80.87;99186.72;8471683;27;20039;-83
2021/12/26 05:21:16;;;;;;;84.40;21.85;;;;;;;-10.40;80.92;99195.47;8462049;27;20450;-88
2021/12/26 05:25:18;;;;;;;106.07;24.88;;;;;;;-10.33;81.47;99188.59;8444166;28;20126;-84
2021/12/26 05:29:19;;;;;;;79.88;22.55;;;;;;;-10.27;81.77;99187.91;8450037;27;20035;-84
2021/12/26 05:33:20;;;;;;;75.65;23.83;;;;;;;-10.27;81.79;99187.91;8454016;28;20035;-83
2021/12/26 05:37:21;;;;;;;86.93;20.88;;;;;;;-10.34;81.98;99186.94;8462101;27;20051;-83
2021/12/26 05:41:21;;;;;;;71.90;20.45;;;;;;;-10.38;82.04;99190.91;8461447;27;20104;-83
2021/12/26 05:45:22;;;;;;;69.93;18.67;;;;;;;-10.41;81.75;99191.22;8459108;27;20466;-82
2021/12/26 05:49:23;;;;;;;70.32;19.02;;;;;;;-10.43;82.28;99188.00;8444007;28;20259;-83
2021/12/26 05:53:24;;;;;;;63.45;17.75;;;;;;;-10.46;82.02;99193.53;8459762;27;20047;-84
2021/12/26 05:57:25;;;;;;;74.70;18.48;;;;;;;-10.48;81.89;99200.75;8462589;28;20122;-84
2021/12/26 06:01:26;;;;;;;94.30;20.83;;;;;;;-10.43;81.98;99203.66;8476585;27;20043;-84
2021/12/26 06:05:27;;;;;;;96.20;23.98;;;;;;;-10.39;82.36;99207.53;8441320;28;20106;-84
2021/12/26 06:09:28;;;;;;;96.03;25.52;;;;;;;-10.35;82.23;99211.44;8450774;28;20077;-84
2021/12/26 06:13:29;;;;;;;107.30;27.70;;;;;;;-10.36;82.48;99210.59;8461466;28;20048;-84
2021/12/26 06:17:31;;;;;;;93.32;26.00;;;;;;;-10.40;82.62;99213.75;8443553;28;20044;-84
2021/12/26 06:21:31;;;;;;;87.00;24.48;;;;;;;-10.46;82.47;99209.22;8461394;28;20088;-84
2021/12/26 06:25:32;;;;;;;90.70;24.50;;;;;;;-10.50;82.55;99211.34;8426605;28;20378;-85
2021/12/26 06:29:33;;;;;;;74.63;23.60;;;;;;;-10.54;82.25;99209.28;8426159;28;20030;-84
2021/12/26 06:33:34;;;;;;;79.80;24.45;;;;;;;-10.61;82.46;99211.75;8461697;28;20068;-84
2021/12/26 06:37:35;;;;;;;84.82;23.88;;;;;;;-10.67;82.22;99212.41;8469507;28;20040;-84
2021/12/26 06:41:38;;;;;;;84.97;23.20;;;;;;;-10.71;82.45;99217.19;8447616;28;20046;-85
2021/12/26 06:45:39;;;;;;;94.82;26.98;;;;;;;-10.74;82.25;99227.16;8464438;28;20120;-85
2021/12/26 06:49:42;;;;;;;103.68;28.60;;;;;;;-10.73;82.39;99244.41;8408205;28;20079;-85
2021/12/26 06:53:42;;;;;;;96.93;28.15;;;;;;;-10.78;82.17;99225.84;8451188;28;20043;-83
2021/12/26 06:57:43;;;;;;;103.35;29.58;;;;;;;-10.82;81.97;99229.78;8460651;28;20596;-83
2021/12/26 07:01:44;;;;;;;118.03;30.17;;;;;;;-10.85;82.01;99230.94;8461012;28;20567;-83
2021/12/26 07:05:45;;;;;;;111.70;30.30;;;;;;;-10.86;82.21;99229.31;8460662;28;20048;-83
2021/12/26 07:09:45;;;;;;;114.13;31.58;;;;;;;-10.81;82.10;99232.22;8467062;28;20040;-83
2021/12/26 07:13:47;;;;;;;135.43;32.83;;;;;;;-10.74;81.95;99235.78;8460266;28;20047;-87
2021/12/26 07:17:48;;;;;;;132.55;31.50;;;;;;;-10.68;82.30;99242.91;8465638;27;20071;-86
2021/12/26 07:21:49;;;;;;;121.10;31.50;;;;;;;-10.61;83.50;99242.25;8432110;27;20047;-84
2021/12/26 07:25:49;;;;;;;125.30;33.97;;;;;;;-10.55;84.30;99246.78;8466453;27;20965;-87
2021/12/26 07:29:50;;;;;;;164.77;43.45;;;;;;;-10.44;84.60;99254.25;8465758;28;20039;-86
2021/12/26 07:33:51;;;;;;;133.13;37.53;;;;;;;-10.33;84.75;99256.47;8466291;27;20055;-86
2021/12/26 07:37:52;;;;;;;141.07;37.33;;;;;;;-10.18;84.44;99259.97;8465121;27;20039;-85
2021/12/26 07:41:53;;;;;;;133.13;37.28;;;;;;;-10.14;84.97;99255.97;8446875;28;20485;-84
2021/12/26 07:45:54;;;;;;;140.43;36.17;;;;;;;-10.04;84.99;99251.34;8462182;27;20112;-86
2021/12/26 07:49:55;;;;;;;145.82;36.63;;;;;;;-9.94;85.38;99246.69;8448352;28;20533;-80
2021/12/26 07:54:01;;;;;;;165.55;44.53;;;;;;;-9.75;85.84;99244.63;8465666;27;20373;-90
2021/12/26 07:58:03;;;;;;;164.40;42.50;;;;;;;-9.59;86.23;99241.88;8448381;27;20130;-87
2021/12/26 08:02:05;;;;;;;167.20;42.30;;;;;;;-9.42;86.17;99245.97;8447032;28;20035;-87
2021/12/26 08:06:07;;;;;;;143.60;40.78;;;;;;;-9.29;86.96;99246.16;8455447;27;20031;-86
2021/12/26 08:10:09;;;;;;;145.32;41.25;;;;;;;-9.13;86.98;99246.00;8466031;27;21243;-86
2021/12/26 08:14:09;;;;;;;128.27;38.30;;;;;;;-8.92;86.45;99237.44;8446808;27;20051;-88
2021/12/26 08:18:11;;;;;;;142.95;37.55;;;;;;;-8.77;87.01;99234.81;8465340;27;20055;-88
2021/12/26 08:22:11;;;;;;;102.60;32.50;;;;;;;-8.67;87.10;99232.75;8447596;27;20040;-89
2021/12/26 08:26:13;;;;;;;133.35;35.95;;;;;;;-8.61;87.59;99229.38;8464945;27;20047;-85
2021/12/26 08:30:14;;;;;;;135.18;34.03;;;;;;;-8.45;87.56;99233.59;8447131;28;20054;-89
2021/12/26 08:34:20;;;;;;;135.75;34.38;;;;;;;-8.26;87.68;99239.03;8463033;27;20131;-85
2021/12/26 08:38:21;;;;;;;115.45;30.42;;;;;;;-8.13;87.77;99228.69;8412460;28;20093;-89
2021/12/26 08:42:22;;;;;;;106.95;31.13;;;;;;;-7.96;87.55;99238.94;8465404;27;20048;-85
2021/12/26 08:46:22;;;;;;;106.95;31.75;;;;;;;-7.79;87.86;99250.78;8431642;27;20058;-84
2021/12/26 08:50:25;;;;;;;88.50;28.83;;;;;;;-7.76;87.97;99245.16;8465386;27;20446;-86
2021/12/26 08:54:28;;;;;;;90.05;26.88;;;;;;;-7.69;88.06;99240.81;8445669;28;20081;-83
2021/12/26 08:58:29;;;;;;;89.63;28.48;;;;;;;-7.59;87.87;99246.53;8475314;27;20049;-85
2021/12/26 09:02:29;;;;;;;100.00;29.35;;;;;;;-7.64;88.28;99246.28;8464598;27;20207;-85
2021/12/26 09:06:30;;;;;;;106.97;32.85;;;;;;;-7.62;88.19;99252.16;8468799;27;20408;-85
2021/12/26 09:10:31;;;;;;;100.43;28.55;;;;;;;-7.51;88.58;99258.72;8475296;27;20525;-85
2021/12/26 09:14:32;;;;;;;112.38;32.03;;;;;;;-7.35;88.08;99256.59;8470144;27;21162;-87
2021/12/26 09:18:33;;;;;;;95.10;29.15;;;;;;;-7.15;87.96;99248.09;8431445;28;20060;-85
2021/12/26 09:22:34;;;;;;;105.15;34.85;;;;;;;-6.96;87.92;99263.16;8425542;28;20135;-85
2021/12/26 09:26:34;;;;;;;108.20;35.40;;;;;;;-6.82;87.60;99262.25;8425494;28;20059;-87
2021/12/26 09:30:37;;;;;;;102.30;29.80;;;;;;;-6.67;87.19;99257.69;8424994;28;20102;-86
2021/12/26 09:34:37;;;;;;;96.85;30.90;;;;;;;-6.59;87.07;99262.75;8425200;28;20047;-86
2021/12/26 09:38:38;;;;;;;94.13;30.13;;;;;;;-6.48;86.96;99259.59;8426985;28;20052;-84
2021/12/26 09:42:39;;;;;;;90.85;28.70;;;;;;;-6.34;86.77;99257.03;8435884;28;20052;-88
2021/12/26 09:46:40;;;;;;;89.97;30.27;;;;;;;-6.28;86.46;99250.97;8427983;28;20051;-85
2021/12/26 09:50:42;;;;;;;84.32;28.58;;;;;;;-6.19;86.37;99249.78;8462919;27;20667;-85
2021/12/26 09:54:45;;;;;;;118.13;32.28;;;;;;;-6.18;86.05;99251.41;8453393;28;20589;-84
2021/12/26 09:58:57;;;;;;;110.25;34.08;;;;;;;-6.18;85.84;99251.41;8430650;27;20055;-83
2021/12/26 10:03:18;;;;;;;89.63;25.08;;;;;;;-6.23;85.66;99243.28;8460925;27;20358;-86
2021/12/26 10:07:21;;;;;;;89.95;25.42;;;;;;;-6.08;85.95;99257.91;8435082;28;20040;-84
2021/12/26 10:11:27;;;;;;;93.13;28.48;;;;;;;-5.89;85.63;99256.34;8456744;28;20051;-84
2021/12/26 10:15:46;;;;;;;100.43;28.50;;;;;;;-5.72;85.35;99252.31;8441845;28;20043;-84
2021/12/26 10:19:48;;;;;;;97.95;29.35;;;;;;;-5.65;84.93;99249.66;8457883;28;20046;-83
2021/12/26 10:23:49;;;;;;;88.32;28.50;;;;;;;-5.65;84.45;99245.22;8456006;28;20047;-85
2021/12/26 10:27:50;;;;;;;99.28;28.17;;;;;;;-5.47;84.33;99259.59;8458636;28;20473;-85
2021/12/26 10:31:57;;;;;;;101.32;27.67;;;;;;;-5.64;83.96;99254.72;8459518;28;20044;-83
2021/12/26 10:36:07;;;;;;;92.70;28.27;;;;;;;-5.61;84.23;99254.34;8454708;28;20063;-82
2021/12/26 10:40:22;;;;;;;101.65;29.88;;;;;;;-5.42;83.68;99251.91;8430703;28;20055;-83
2021/12/26 10:44:48;;;;;;;115.82;31.75;;;;;;;-5.30;83.79;99255.56;8443072;28;20126;-83
2021/12/26 10:48:49;;;;;;;119.95;34.17;;;;;;;-5.29;83.08;99257.19;8457908;28;20058;-82
2021/12/26 10:53:14;;;;;;;106.28;34.35;;;;;;;-5.28;82.89;99264.03;8463118;27;20370;-82
2021/12/26 10:57:19;;;;;;;125.10;35.22;;;;;;;-5.17;83.07;99271.34;8457745;27;20051;-82
2021/12/26 11:01:20;;;;;;;128.65;36.13;;;;;;;-5.16;82.75;99251.91;8429497;28;20143;-81
2021/12/26 11:05:24;;;;;;;126.78;38.83;;;;;;;-5.18;82.62;99259.22;8455595;28;20043;-81
2021/12/26 11:09:25;;;;;;;150.50;45.80;;;;;;;-5.16;82.82;99254.53;8431843;27;20050;-81
2021/12/26 11:13:29;;;;;;;133.85;40.53;;;;;;;-5.23;83.08;99262.44;8475515;27;20052;-82
2021/12/26 11:17:33;;;;;;;126.82;40.30;;;;;;;-5.41;83.32;99253.53;8457415;27;20047;-82
2021/12/26 11:21:35;;;;;;;145.52;42.95;;;;;;;-5.33;83.40;99250.69;8448115;28;20074;-82
2021/12/26 11:25:43;;;;;;;158.52;46.67;;;;;;;-5.23;83.35;99251.91;8428818;28;20082;-81
2021/12/26 11:29:43;;;;;;;150.63;45.00;;;;;;;-5.16;83.50;99257.16;8465366;27;20530;-81
2021/12/26 11:33:45;;;;;;;163.85;46.28;;;;;;;-5.07;83.37;99250.66;8448161;27;20040;-81
2021/12/26 11:37:47;;;;;;;169.20;47.85;;;;;;;-4.90;83.05;99245.78;8465291;27;20113;-82
2021/12/26 11:41:54;;;;;;;183.05;49.60;;;;;;;-4.91;83.25;99244.97;8444577;28;20511;-81
2021/12/26 11:46:03;;;;;;;124.50;35.73;;;;;;;-4.87;82.88;99230.41;8430815;27;20055;-80
2021/12/26 11:50:49;;;;;;;146.15;44.67;;;;;;;-5.11;83.51;99233.66;8457274;27;20044;-80
2021/12/26 11:55:10;;;;;;;154.15;48.25;;;;;;;-5.17;83.96;99226.56;8284491;28;20145;-80
2021/12/26 11:59:44;;;;;;;154.00;48.53;;;;;;;-5.17;83.77;99229.22;8293931;28;20076;-81
2021/12/26 12:03:45;;;;;;;166.77;48.95;;;;;;;-5.16;84.19;99241.38;8278867;28;20062;-81
2021/12/26 12:07:54;;;;;;;148.23;45.80;;;;;;;-5.14;84.39;99244.63;8302934;28;20037;-81
2021/12/26 12:11:59;;;;;;;161.32;48.92;;;;;;;-5.08;84.37;99232.47;8303102;28;20144;-81
2021/12/26 12:16:06;;;;;;;170.98;50.78;;;;;;;-5.13;84.21;99235.72;8263023;28;20062;-80
2021/12/26 12:20:20;;;;;;;175.13;51.85;;;;;;;-5.18;84.38;99238.16;8291526;28;20054;-83
2021/12/26 12:24:26;;;;;;;184.15;50.35;;;;;;;-5.18;84.45;99232.88;8310221;28;20053;-81
2021/12/26 12:28:42;;;;;;;155.73;48.13;;;;;;;-5.18;84.75;99232.88;8302988;28;20067;-84
2021/12/26 12:32:43;;;;;;;156.68;47.97;;;;;;;-5.28;84.88;99221.94;8424374;28;20151;-82
2021/12/26 12:36:45;;;;;;;172.55;50.55;;;;;;;-5.26;84.73;99219.91;8429983;28;20052;-82
2021/12/26 12:40:46;;;;;;;179.63;53.55;;;;;;;-5.11;84.94;99212.59;8426263;28;20036;-83
2021/12/26 12:44:57;;;;;;;158.10;46.90;;;;;;;-4.85;84.37;99206.47;8413933;28;20142;-87
2021/12/26 12:49:06;;;;;;;148.27;48.00;;;;;;;-4.49;83.50;99203.28;8429254;28;20043;-85
2021/12/26 12:53:07;;;;;;;161.55;49.65;;;;;;;-4.26;83.56;99200.97;8426850;28;20113;-82
2021/12/26 12:57:08;;;;;;;158.27;47.63;;;;;;;-3.96;82.80;99199.34;8433169;28;20105;-82
2021/12/26 13:01:10;;;;;;;148.95;45.42;;;;;;;-3.99;81.97;99198.97;8431618;28;20499;-82
2021/12/26 13:05:11;;;;;;;135.80;43.00;;;;;;;-3.53;80.59;99201.28;8433909;28;20050;-82
2021/12/26 13:09:12;;;;;;;133.40;41.15;;;;;;;-3.16;79.87;99208.28;8427713;28;20036;-81
2021/12/26 13:13:16;;;;;;;134.60;42.83;;;;;;;-3.31;79.48;99194.59;8442507;28;20044;-82
2021/12/26 13:17:27;;;;;;;135.07;44.78;;;;;;;-3.22;79.00;99209.16;8462724;27;20130;-80
2021/12/26 13:21:28;;;;;;;131.77;42.33;;;;;;;-3.12;78.71;99198.88;8466061;27;20184;-83
2021/12/26 13:25:31;;;;;;;125.57;40.75;;;;;;;-2.94;78.28;99205.22;8459181;27;20040;-84
2021/12/26 13:29:34;;;;;;;126.38;40.05;;;;;;;-2.88;77.44;99199.06;8459553;28;20062;-83
2021/12/26 13:33:37;;;;;;;125.30;40.20;;;;;;;-2.81;77.19;99199.81;8474394;27;20054;-83
2021/12/26 13:37:38;;;;;;;124.82;39.55;;;;;;;-2.88;77.53;99204.34;8389316;28;20064;-83
2021/12/26 13:41:43;;;;;;;122.43;38.92;;;;;;;-3.14;77.30;99200.97;8390052;28;20409;-84
2021/12/26 13:45:44;;;;;;;117.55;36.45;;;;;;;-3.26;77.41;99197.41;8406229;28;20047;-84
2021/12/26 13:49:46;;;;;;;114.85;37.03;;;;;;;-3.69;77.05;99201.81;8371566;28;20143;-84
2021/12/26 13:53:54;;;;;;;104.70;33.40;;;;;;;-3.90;78.04;99201.16;8388021;28;20130;-83
2021/12/26 13:57:59;;;;;;;117.90;37.45;;;;;;;-3.99;77.87;99207.72;8372652;28;20098;-84
2021/12/26 14:02:04;;;;;;;119.93;35.75;;;;;;;-4.03;77.76;99211.81;8390125;28;20060;-83
2021/12/26 14:06:05;;;;;;;105.13;35.60;;;;;;;-4.23;78.00;99200.56;8387338;28;20040;-84
2021/12/26 14:10:12;;;;;;;101.68;31.80;;;;;;;-4.46;78.35;99205.53;8404609;28;20043;-85
2021/12/26 14:14:12;;;;;;;100.10;30.30;;;;;;;-4.75;78.62;99202.38;8409731;28;20040;-84
2021/12/26 14:18:16;;;;;;;92.07;30.48;;;;;;;-4.92;78.94;99206.50;8475405;27;20051;-86
2021/12/26 14:22:27;;;;;;;108.80;32.47;;;;;;;-5.11;78.87;99207.34;8461726;28;20526;-86
2021/12/26 14:26:31;;;;;;;102.63;30.73;;;;;;;-5.20;78.98;99203.31;8448160;28;20050;-85
2021/12/26 14:30:36;;;;;;;104.95;32.72;;;;;;;-5.28;78.82;99206.13;8434209;27;20044;-87
2021/12/26 14:34:44;;;;;;;91.05;31.25;;;;;;;-5.47;79.26;99206.97;8450538;27;20440;-86
2021/12/26 14:38:58;;;;;;;91.60;26.57;;;;;;;-5.68;79.40;99200.91;8466570;27;20484;-84
2021/12/26 14:42:59;;;;;;;105.55;30.88;;;;;;;-5.80;79.59;99191.97;8465466;27;20038;-83
2021/12/26 14:47:09;;;;;;;114.85;36.15;;;;;;;-5.97;79.64;99196.03;8467471;27;20039;-83
2021/12/26 14:51:18;;;;;;;115.75;34.60;;;;;;;-6.07;79.89;99200.88;8406238;27;20039;-84
2021/12/26 14:55:20;;;;;;;;;;;;;;;-6.20;80.37;99200.84;8465668;27;20465;-83
2021/12/26 14:59:27;;;;;;;99.30;28.58;;;;;;;-6.30;80.26;99201.25;8448412;27;19919;-83
2021/12/26 15:03:32;;;;;;;69.43;24.10;;;;;;;-6.40;80.52;99217.34;8447340;28;20039;-84
2021/12/26 15:07:40;;;;;;;80.53;24.63;;;;;;;-6.47;80.13;99215.72;8453115;28;20305;-84
2021/12/26 15:11:41;;;;;;;84.80;26.25;;;;;;;-6.58;80.62;99219.72;8466192;28;20064;-85
2021/12/26 15:15:49;;;;;;;82.68;26.48;;;;;;;-6.66;80.77;99222.50;8468088;27;20044;-84
2021/12/26 15:19:50;;;;;;;83.82;24.67;;;;;;;-6.73;80.88;99226.94;8476852;27;20048;-84
2021/12/26 15:24:03;;;;;;;81.63;27.00;;;;;;;-6.81;80.87;99234.97;8448681;28;20162;-84
2021/12/26 15:28:12;;;;;;;98.32;30.95;;;;;;;-6.89;80.73;99232.50;8456047;27;20066;-84
2021/12/26 15:32:15;;;;;;;145.27;40.20;;;;;;;-6.99;81.28;99232.03;8464098;28;20460;-84
2021/12/26 15:36:20;;;;;;;149.98;41.03;;;;;;;-7.01;80.85;99228.78;8465497;28;20056;-83
2021/12/26 15:40:21;;;;;;;103.20;28.98;;;;;;;-7.06;81.35;99223.31;8473330;27;20147;-82
2021/12/26 15:44:22;;;;;;;75.45;25.35;;;;;;;-7.12;81.00;99226.69;8463940;27;20062;-83
2021/12/26 15:48:24;;;;;;;71.43;21.88;;;;;;;-7.19;81.06;99228.50;8445585;28;20039;-82
2021/12/26 15:52:24;;;;;;;60.40;19.92;;;;;;;-7.20;81.35;99225.06;8438183;28;20058;-83
2021/12/26 15:56:26;;;;;;;66.60;19.70;;;;;;;-7.19;81.41;99220.63;8459362;27;20101;-83
2021/12/26 16:00:27;;;;;;;78.88;23.58;;;;;;;-7.21;81.11;99222.63;8461779;27;20043;-82
2021/12/26 16:04:28;;;;;;;70.43;20.98;;;;;;;-7.20;81.35;99224.25;8444675;27;20538;-82
2021/12/26 16:08:29;;;;;;;67.93;20.42;;;;;;;-7.27;81.18;99219.75;8461587;28;20192;-83
2021/12/26 16:12:30;;;;;;;63.97;20.40;;;;;;;-7.36;81.09;99231.41;8444073;28;20062;-83
2021/12/26 16:16:31;;;;;;;59.85;19.83;;;;;;;-7.40;81.35;99230.13;8463797;27;20075;-82
2021/12/26 16:20:32;;;;;;;55.88;18.02;;;;;;;-7.42;81.25;99226.91;8459983;28;20048;-82
2021/12/26 16:24:33;;;;;;;48.35;17.00;;;;;;;-7.46;81.18;99220.44;8463020;27;20047;-81
2021/12/26 16:28:37;;;;;;;59.58;16.40;;;;;;;-7.52;81.12;99225.63;8440597;28;20032;-82
2021/12/26 16:32:39;;;;;;;51.67;16.20;;;;;;;-7.56;81.35;99225.16;8462349;28;20161;-81
2021/12/26 16:36:39;;;;;;;54.75;16.00;;;;;;;-7.60;80.99;99228.38;8459914;28;20051;-81
2021/12/26 16:40:40;;;;;;;54.30;16.73;;;;;;;-7.63;81.02;99226.13;8443941;27;21522;-81
2021/12/26 16:44:41;;;;;;;56.17;15.63;;;;;;;-7.66;81.16;99224.69;8477141;27;20056;-82
2021/12/26 16:48:43;;;;;;;55.47;14.48;;;;;;;-7.65;81.00;99226.31;8459987;27;20058;-82
2021/12/26 16:52:45;;;;;;;53.42;15.27;;;;;;;-7.65;81.00;99225.50;8476057;27;20415;-81
2021/12/26 16:56:45;;;;;;;52.50;15.55;;;;;;;-7.68;81.17;99231.94;8461345;27;20059;-81
2021/12/26 17:00:47;;;;;;;50.33;13.70;;;;;;;-7.68;81.02;99237.19;8454530;27;20127;-81
2021/12/26 17:04:48;;;;;;;54.38;15.70;;;;;;;-7.71;81.41;99242.78;8446932;27;20056;-81
2021/12/26 17:08:48;;;;;;;55.97;16.00;;;;;;;-7.72;81.06;99241.19;8478607;27;20047;-81
2021/12/26 17:12:50;;;;;;;51.47;15.82;;;;;;;-7.74;81.02;99243.19;8460882;28;20148;-81
2021/12/26 17:16:53;;;;;;;51.47;16.05;;;;;;;-7.71;81.14;99253.28;8459264;28;20047;-81
2021/12/26 17:20:54;;;;;;;59.30;15.63;;;;;;;-7.71;81.50;99254.09;8446855;28;20040;-82
2021/12/26 17:24:55;;;;;;;54.72;15.32;;;;;;;-7.75;81.16;99246.78;8461508;28;20077;-82
2021/12/26 17:28:56;;;;;;;57.05;16.33;;;;;;;-7.74;81.20;99253.66;8461173;27;20051;-81
2021/12/26 17:32:59;;;;;;;48.47;15.30;;;;;;;-7.77;81.11;99254.06;8464849;27;20063;-84
2021/12/26 17:37:01;;;;;;;49.95;16.75;;;;;;;-7.81;81.21;99252.78;8458249;27;20038;-82
2021/12/26 17:41:02;;;;;;;70.13;17.30;;;;;;;-7.85;81.36;99259.41;8457222;28;20043;-81
2021/12/26 17:45:03;;;;;;;60.08;18.80;;;;;;;-7.83;81.26;99255.63;8459086;27;20052;-81
2021/12/26 17:49:06;;;;;;;58.85;17.52;;;;;;;-7.86;81.20;99249.91;8456302;28;20040;-82
2021/12/26 17:53:07;;;;;;;55.67;16.08;;;;;;;-7.87;81.40;99250.91;8458974;28;20136;-82
2021/12/26 17:57:08;;;;;;;53.03;15.55;;;;;;;-7.84;80.93;99253.16;8442692;28;20051;-81
2021/12/26 18:01:09;;;;;;;49.90;14.90;;;;;;;-7.81;81.18;99252.78;8462247;27;20122;-82
2021/12/26 18:05:11;;;;;;;47.25;15.27;;;;;;;-7.78;80.63;99257.66;8462006;27;20389;-82
2021/12/26 18:09:12;;;;;;;53.88;16.58;;;;;;;-7.74;80.45;99243.19;8439599;28;20746;-82
2021/12/26 18:13:14;;;;;;;61.50;17.77;;;;;;;-7.71;79.85;99253.28;8459076;28;20048;-85
2021/12/26 18:17:15;;;;;;;60.88;16.02;;;;;;;-7.72;79.77;99246.44;8465027;28;20064;-85
2021/12/26 18:21:16;;;;;;;62.85;18.08;;;;;;;-7.72;80.04;99246.44;8443117;28;20453;-81
2021/12/26 18:25:17;;;;;;;62.58;18.10;;;;;;;-7.72;79.63;99249.06;8396903;28;20082;-82
2021/12/26 18:29:19;;;;;;;65.25;18.58;;;;;;;-7.71;79.24;99242.78;8364496;28;20057;-84
2021/12/26 18:33:21;;;;;;;64.38;18.92;;;;;;;-7.76;79.33;99239.94;8385496;28;20203;-82